Time;durP1;ratioP1;P1;durP2;ratioP2;P2;SDS_P1;SDS_P2;PMS_P1;PMS_P2;Temp;Humidity;BMP_temperature;BMP_pressure;BME280_temperature;BME280_humidity;BME280_pressure;Samples;Min_cycle;Max_cycle;Signal;HPM_P1;HPM_P2
2022/12/15 00:40:59;;;;;;;40.50;20.33;;;-2.80;99.90;;;-3.84;100.00;96528.78;5003129;28;20049;-72
2022/12/15 00:43:28;;;;;;;43.92;24.70;;;-2.80;99.90;;;-3.81;100.00;96528.78;5001682;28;20064;-73
2022/12/15 00:48:42;;;;;;;55.33;28.38;;;-2.80;99.90;;;-4.04;100.00;96520.38;5002100;28;20108;-73
2022/12/15 00:51:09;;;;;;;54.70;28.42;;;-2.90;99.90;;;-4.06;100.00;96522.06;5003819;28;20122;-73
2022/12/15 01:21:20;;;;;;;39.00;20.92;;;-2.70;99.90;;;-3.74;100.00;96552.44;5004081;28;20050;-73
2022/12/15 01:23:51;;;;;;;46.05;23.75;;;-2.70;99.90;;;-3.89;100.00;96562.59;5002853;28;20054;-73
2022/12/15 01:26:18;;;;;;;40.92;23.40;;;-2.80;99.90;;;-3.94;100.00;96565.16;5002200;28;20149;-73
2022/12/15 01:28:45;;;;;;;37.05;20.15;;;-2.80;99.90;;;-4.10;100.00;96566.88;5004236;28;20496;-73
2022/12/15 01:31:13;;;;;;;41.10;24.20;;;-2.90;99.90;;;-4.16;100.00;96566.03;5005173;28;20045;-72
2022/12/15 01:33:42;;;;;;;51.88;26.92;;;-3.10;99.90;;;-4.26;100.00;96560.97;5004097;28;20075;-73
2022/12/15 01:36:10;;;;;;;44.35;25.55;;;-3.20;99.90;;;-4.35;100.00;96576.19;5004749;28;20054;-72
2022/12/15 01:38:37;;;;;;;45.40;21.98;;;-3.30;99.90;;;-4.37;100.00;96574.50;5001587;28;20065;-72
2022/12/15 01:41:11;;;;;;;44.47;22.73;;;-3.30;99.90;;;-4.43;100.00;96588.81;4997571;28;20046;-73
2022/12/15 01:43:39;;;;;;;44.05;23.10;;;-3.30;99.90;;;-4.41;100.00;96587.13;5016457;28;20407;-73
2022/12/15 01:46:13;;;;;;;46.97;24.85;;;-3.40;99.90;;;-4.52;100.00;96586.28;5004584;28;20050;-73
2022/12/15 01:48:44;;;;;;;44.78;22.95;;;-3.40;99.90;;;-4.63;100.00;96581.25;5002136;28;20045;-72
2022/12/15 01:51:15;;;;;;;44.30;22.88;;;-3.50;99.90;;;-4.66;100.00;96585.44;5004034;28;20445;-73
2022/12/15 01:53:49;;;;;;;50.67;23.00;;;-3.60;99.90;;;-4.73;100.00;96586.28;5000973;28;20483;-73
2022/12/15 01:56:16;;;;;;;38.50;21.42;;;-3.60;99.90;;;-4.82;100.00;96583.75;5001906;28;20061;-73
2022/12/15 01:58:47;;;;;;;46.78;22.15;;;-3.70;99.90;;;-4.85;100.00;96577.81;5004049;28;20057;-72
2022/12/15 02:01:14;;;;;;;41.05;20.83;;;-3.80;99.90;;;-4.92;100.00;96577.81;4998715;28;20054;-73
2022/12/15 02:03:42;;;;;;;41.03;20.98;;;-3.80;99.90;;;-4.90;100.00;96581.19;5000973;28;20045;-73
2022/12/15 02:06:10;;;;;;;42.58;22.02;;;-3.80;99.90;;;-4.93;100.00;96579.47;5002580;28;20042;-73
2022/12/15 02:08:39;;;;;;;36.50;18.38;;;-3.90;99.90;;;-5.02;100.00;96584.53;5003137;28;20492;-72
2022/12/15 02:11:20;;;;;;;40.55;19.70;;;-4.00;99.90;;;-5.16;100.00;96589.56;4990666;28;20112;-72
2022/12/15 02:14:04;;;;;;;40.15;20.80;;;-4.10;99.90;;;-5.18;100.00;96591.22;5002516;28;20392;-73
2022/12/15 02:17:23;;;;;;;48.22;20.75;;;-4.10;99.90;;;-5.19;100.00;96599.66;5000479;28;20050;-73
2022/12/15 02:20:13;;;;;;;34.25;17.63;;;-4.10;99.90;;;-5.09;100.00;96603.06;5002413;28;20102;-73
2022/12/15 02:23:06;;;;;;;37.15;17.42;;;-4.10;99.90;;;-4.98;100.00;96613.22;5002099;28;20050;-72
2022/12/15 02:25:55;;;;;;;39.85;17.33;;;-3.90;99.90;;;-5.25;100.00;96609.75;4999909;28;20486;-73
2022/12/15 02:28:51;;;;;;;42.05;19.00;;;-4.00;99.90;;;-5.42;100.00;96604.66;5003080;28;20046;-73
2022/12/15 02:31:49;;;;;;;40.40;19.75;;;-4.10;99.90;;;-5.46;100.00;96600.41;4998866;28;20058;-72
2022/12/15 02:34:36;;;;;;;38.25;18.00;;;-4.20;99.90;;;-5.48;100.00;96602.09;5002103;28;20052;-72
2022/12/15 02:37:20;;;;;;;42.20;18.30;;;-4.20;99.90;;;-5.49;100.00;96603.78;4999679;28;20645;-73
2022/12/15 02:39:47;;;;;;;45.55;19.23;;;-4.30;99.90;;;-5.40;100.00;96599.59;4998649;28;20053;-72
2022/12/15 02:42:15;;;;;;;44.83;20.63;;;-4.20;99.90;;;-5.32;100.00;96598.78;5001129;28;20140;-72
2022/12/15 02:44:48;;;;;;;41.38;19.20;;;-4.20;99.90;;;-5.27;100.00;96603.84;4998336;28;20054;-72
2022/12/15 02:47:31;;;;;;;;;;;-4.10;99.90;;;-5.10;100.00;96616.56;5001228;28;20064;-72
2022/12/15 02:50:25;;;;;;;32.05;15.23;;;-4.00;99.90;;;-5.05;100.00;96609.84;5001881;28;19961;-72
2022/12/15 02:53:02;;;;;;;36.15;16.55;;;-4.00;99.90;;;-5.02;100.00;96611.53;5001700;28;20512;-72
2022/12/15 02:56:03;;;;;;;36.28;15.50;;;-3.90;99.90;;;-5.06;100.00;96603.09;5002377;28;20049;-72
2022/12/15 02:58:42;;;;;;;36.40;17.45;;;-3.80;99.90;;;-5.06;100.00;96609.00;5002422;28;20060;-72
2022/12/15 03:01:38;;;;;;;39.67;19.33;;;-3.90;99.90;;;-4.99;100.00;96611.56;5000972;28;20056;-72
2022/12/15 03:04:08;;;;;;;40.95;18.67;;;-3.80;99.90;;;-4.91;100.00;96622.53;5000823;28;20054;-72
2022/12/15 03:06:36;;;;;;;43.08;18.90;;;-3.80;99.90;;;-4.86;100.00;96618.31;4998905;28;20046;-72
2022/12/15 03:09:04;;;;;;;39.00;16.58;;;-3.80;99.90;;;-4.78;100.00;96628.47;5031112;28;20058;-73
2022/12/15 03:11:31;;;;;;;35.25;19.25;;;-3.80;99.90;;;-4.73;100.00;96622.56;5015908;28;20135;-72
2022/12/15 03:13:58;;;;;;;28.90;14.68;;;-3.70;99.90;;;-4.69;100.00;96628.50;4982855;28;20068;-72
2022/12/15 03:16:24;;;;;;;39.58;20.20;;;-3.70;99.90;;;-4.87;100.00;96637.72;5002999;28;20065;-73
2022/12/15 03:18:51;;;;;;;39.95;20.13;;;-3.80;99.90;;;-4.99;100.00;96634.31;5013831;28;20054;-73
2022/12/15 03:21:18;;;;;;;42.28;21.13;;;-3.90;99.90;;;-5.02;100.00;96637.66;4999562;28;20053;-73
2022/12/15 03:23:45;;;;;;;42.13;20.92;;;-4.00;99.90;;;-5.08;100.00;96638.50;5001203;28;20050;-73
2022/12/15 03:26:12;;;;;;;40.83;18.40;;;-4.00;99.90;;;-5.14;100.00;96643.53;5001097;28;20128;-72
2022/12/15 03:28:39;;;;;;;42.38;20.98;;;-4.10;99.90;;;-5.11;100.00;96652.81;5000243;28;20046;-73
2022/12/15 03:31:06;;;;;;;33.05;16.45;;;-4.10;99.90;;;-5.09;100.00;96646.91;5002130;28;20965;-73
2022/12/15 03:33:33;;;;;;;36.70;17.42;;;-4.10;99.90;;;-4.93;100.00;96645.28;4999785;28;20054;-73
2022/12/15 03:36:01;;;;;;;31.65;14.85;;;-4.10;99.90;;;-5.00;100.00;96633.47;4996267;28;20165;-73
2022/12/15 03:38:28;;;;;;;29.85;14.70;;;-4.10;99.90;;;-5.10;100.00;96642.72;4999824;28;20065;-73
2022/12/15 03:40:54;;;;;;;35.78;16.83;;;-4.30;99.90;;;-5.41;100.00;96631.59;5000760;28;20054;-73
2022/12/15 03:43:21;;;;;;;37.25;19.33;;;-4.40;99.90;;;-5.51;100.00;96640.00;5001106;28;20058;-72
2022/12/15 03:45:48;;;;;;;35.67;15.80;;;-4.60;99.90;;;-5.53;100.00;96636.63;5000035;28;20093;-72
2022/12/15 03:48:15;;;;;;;37.28;16.67;;;-4.60;99.90;;;-5.59;100.00;96637.41;5002034;28;20507;-73
2022/12/15 03:50:43;;;;;;;44.90;19.88;;;-4.60;99.90;;;-5.69;100.00;96649.16;5002207;28;20054;-73
2022/12/15 03:53:10;;;;;;;39.50;18.10;;;-4.70;99.90;;;-5.72;100.00;96648.31;5001568;28;20512;-73
2022/12/15 03:55:37;;;;;;;37.42;19.45;;;-4.80;99.90;;;-5.68;100.00;96658.47;5001698;28;20076;-72
2022/12/15 03:58:04;;;;;;;34.15;16.55;;;-4.80;99.90;;;-5.67;100.00;96660.13;5005490;28;20049;-73
2022/12/15 04:00:31;;;;;;;38.65;18.63;;;-4.80;99.90;;;-5.70;100.00;96657.59;5005948;28;20053;-72
2022/12/15 04:02:58;;;;;;;38.65;16.73;;;-4.80;99.90;;;-5.78;100.00;96663.44;5004623;28;20469;-72
2022/12/15 04:05:32;;;;;;;35.55;17.67;;;-4.90;99.90;;;-5.81;100.00;96649.09;5005065;28;20850;-72
2022/12/15 04:08:00;;;;;;;40.55;19.08;;;-4.90;99.90;;;-5.80;100.00;96653.31;5006280;28;20058;-72
2022/12/15 04:10:30;;;;;;;36.55;17.75;;;-4.90;99.90;;;-5.85;100.00;96656.66;5005416;28;20046;-72
2022/12/15 04:13:04;;;;;;;36.78;17.40;;;-4.90;99.90;;;-5.90;100.00;96654.94;5020429;28;20443;-73
2022/12/15 04:15:32;;;;;;;34.72;17.30;;;-4.90;99.90;;;-5.99;100.00;96662.47;5003564;28;20076;-72
2022/12/15 04:18:02;;;;;;;39.10;18.00;;;-4.90;99.90;;;-6.05;100.00;96657.38;5001788;28;20054;-72
2022/12/15 04:20:29;;;;;;;38.72;18.85;;;-4.90;99.90;;;-5.92;100.00;96658.28;5015498;28;20046;-72
2022/12/15 04:22:56;;;;;;;37.95;16.90;;;-4.90;99.90;;;-5.76;100.00;96659.25;5006094;28;20480;-72
2022/12/15 05:32:25;;;;;;;37.30;16.92;;;-4.30;99.90;;;-5.28;100.00;96678.06;5004642;28;20096;-73
2022/12/15 05:34:52;;;;;;;31.98;13.18;;;-4.40;99.90;;;-5.35;100.00;96683.91;5002353;28;20069;-73
2022/12/15 05:37:19;;;;;;;32.17;17.33;;;-4.40;99.90;;;-5.42;100.00;96690.63;5004730;28;20062;-73
2022/12/15 05:39:46;;;;;;;29.42;13.98;;;-4.50;99.90;;;-5.43;100.00;96693.97;5002101;28;20076;-73
2022/12/15 05:42:13;;;;;;;25.27;12.73;;;-4.60;99.90;;;-5.42;100.00;96699.91;5001572;28;20049;-73
2022/12/15 05:44:40;;;;;;;33.15;15.93;;;-4.50;99.90;;;-5.68;100.00;96709.00;5000349;28;20042;-72
2022/12/15 05:47:08;;;;;;;35.55;17.23;;;-4.70;99.90;;;-5.83;100.00;96708.91;5001107;28;20673;-73
2022/12/15 05:49:35;;;;;;;35.35;17.70;;;-4.80;99.90;;;-5.86;100.00;96716.47;4997524;28;20068;-73
2022/12/15 05:52:02;;;;;;;37.42;17.15;;;-4.90;99.90;;;-5.79;100.00;96717.31;4995604;28;20065;-72
2022/12/15 05:54:29;;;;;;;41.38;16.88;;;-4.90;99.90;;;-5.79;100.00;96717.31;4997400;28;20566;-73
2022/12/15 05:56:56;;;;;;;41.53;18.52;;;-4.90;99.90;;;-5.83;100.00;96711.41;4995681;28;20077;-73
2022/12/15 05:59:23;;;;;;;41.33;18.52;;;-4.90;99.90;;;-5.98;100.00;96702.06;4986960;28;20437;-73
2022/12/15 06:01:50;;;;;;;27.27;13.57;;;-4.90;99.90;;;-6.25;100.00;96695.09;4993286;28;20081;-73
2022/12/15 06:04:18;;;;;;;32.50;14.32;;;-5.00;99.90;;;-6.29;100.00;96685.81;4983648;28;20046;-73
2022/12/15 06:06:45;;;;;;;26.52;12.75;;;-5.20;99.90;;;-6.32;100.00;96688.28;4986296;28;20050;-72
2022/12/15 06:09:12;;;;;;;38.80;16.48;;;-5.30;99.90;;;-6.43;100.00;96683.16;4984276;28;20064;-72
2022/12/15 06:11:39;;;;;;;27.77;10.95;;;-5.40;99.90;;;-6.47;100.00;96685.66;4984608;28;21195;-72
2022/12/15 06:14:06;;;;;;;27.95;13.32;;;-5.40;99.90;;;-6.45;100.00;96681.44;4984174;28;20050;-72
2022/12/15 06:16:34;;;;;;;25.10;11.80;;;-5.50;99.90;;;-6.42;100.00;96694.09;5007823;28;21889;-72
2022/12/15 06:19:08;;;;;;;34.05;14.85;;;-5.50;99.90;;;-6.42;100.00;96697.47;4992274;28;20499;-72
2022/12/15 06:21:35;;;;;;;27.10;13.10;;;-5.50;99.90;;;-6.50;100.00;96703.28;4986235;28;20176;-72
2022/12/15 06:24:06;;;;;;;32.38;14.25;;;-5.50;99.90;;;-6.54;100.00;96715.03;4985230;28;20053;-72
2022/12/15 06:26:36;;;;;;;31.30;13.07;;;-5.50;99.90;;;-6.34;100.00;96730.34;4987488;28;20046;-73
2022/12/15 06:29:07;;;;;;;29.23;12.27;;;-5.40;99.90;;;-6.24;100.00;96741.41;4994538;28;20058;-73
2022/12/15 06:31:36;;;;;;;28.65;13.13;;;-5.40;99.90;;;-6.12;100.00;96749.94;4987372;28;20106;-73
2022/12/15 06:34:06;;;;;;;34.08;14.38;;;-5.30;99.90;;;-6.16;100.00;96743.19;4989563;28;20064;-72
2022/12/15 06:36:33;;;;;;;31.27;14.13;;;-5.30;99.90;;;-6.44;100.00;96749.63;4986890;28;20057;-73
2022/12/15 06:39:03;;;;;;;27.80;13.35;;;-5.30;99.90;;;-6.45;100.00;96740.38;4990475;28;20071;-72
2022/12/15 06:41:31;;;;;;;25.85;12.45;;;-5.50;99.90;;;-6.55;100.00;96729.31;4987084;28;20971;-72
2022/12/15 06:43:59;;;;;;;36.25;15.38;;;-5.50;99.90;;;-6.35;100.00;96728.69;4985734;28;20057;-72
2022/12/15 06:46:30;;;;;;;30.00;13.73;;;-5.50;99.90;;;-6.34;100.00;96730.34;4985071;28;20042;-72
2022/12/15 06:48:58;;;;;;;31.45;13.63;;;-5.50;99.90;;;-6.27;100.00;96731.25;4983327;28;20773;-72
2022/12/15 06:51:26;;;;;;;31.30;14.88;;;-5.50;99.90;;;-6.26;100.00;96733.81;4982896;28;20054;-73
2022/12/15 06:53:54;;;;;;;30.80;13.25;;;-5.40;99.90;;;-6.33;100.00;96729.53;4989531;28;20049;-72
2022/12/15 06:56:35;;;;;;;38.03;14.52;;;-5.40;99.90;;;-6.26;100.00;96721.19;4990365;28;20053;-72
2022/12/15 06:59:04;;;;;;;27.23;13.05;;;-5.40;99.90;;;-6.55;100.00;96725.94;4984278;28;20098;-72
2022/12/15 07:01:31;;;;;;;33.30;14.30;;;-5.50;99.90;;;-6.56;100.00;96711.63;4984125;28;20054;-72
2022/12/15 07:04:00;;;;;;;32.85;14.30;;;-5.60;99.90;;;-6.46;100.00;96715.09;4986760;28;20161;-72
2022/12/15 07:06:35;;;;;;;40.35;15.75;;;-5.50;99.90;;;-6.46;100.00;96723.50;4985346;28;20543;-72
2022/12/15 07:09:06;;;;;;;25.60;12.60;;;-5.50;99.90;;;-6.48;100.00;96719.28;5011592;28;20197;-72
2022/12/15 07:11:34;;;;;;;38.20;15.95;;;-5.50;99.90;;;-6.47;100.00;96715.94;4988744;28;20132;-72
2022/12/15 07:14:01;;;;;;;35.40;14.15;;;-5.50;99.90;;;-6.48;100.00;96717.59;4988380;28;20209;-72
2022/12/15 07:16:27;;;;;;;29.88;11.98;;;-5.60;99.90;;;-6.52;100.00;96716.75;4986629;28;20064;-73
2022/12/15 07:18:54;;;;;;;34.58;14.30;;;-5.60;99.90;;;-6.50;100.00;96719.25;4982057;28;20065;-72
2022/12/15 07:21:21;;;;;;;32.47;13.70;;;-5.60;99.90;;;-6.48;100.00;96722.66;5007032;28;20053;-72
2022/12/15 07:23:48;;;;;;;26.02;11.75;;;-5.50;99.90;;;-6.54;100.00;96712.50;4983239;28;20050;-72
2022/12/15 07:26:24;;;;;;;29.88;12.38;;;-5.50;99.90;;;-6.51;100.00;96712.53;4986701;28;20538;-73
2022/12/15 07:28:52;;;;;;;24.75;11.73;;;-5.60;99.90;;;-6.77;100.00;96702.16;4982856;28;20053;-72
2022/12/15 07:31:20;;;;;;;25.10;12.10;;;-5.60;99.90;;;-6.65;100.00;96702.28;4990286;28;20121;-72
2022/12/15 07:33:48;;;;;;;32.25;13.55;;;-5.60;99.90;;;-6.50;100.00;96714.19;4991702;28;20653;-72
2022/12/15 07:36:15;;;;;;;33.63;12.65;;;-5.60;99.90;;;-6.47;100.00;96713.41;4992091;28;21119;-71
2022/12/15 07:38:44;;;;;;;29.23;13.65;;;-5.50;99.90;;;-6.46;100.00;96717.63;5022491;28;20046;-74
2022/12/15 07:41:16;;;;;;;28.70;12.90;;;-5.50;99.90;;;-6.48;100.00;96722.66;4993072;28;20058;-71
2022/12/15 07:43:44;;;;;;;31.45;13.07;;;-5.40;99.90;;;-6.47;100.00;96721.84;4990175;28;20109;-73
2022/12/15 07:46:10;;;;;;;24.80;11.85;;;-5.30;99.90;;;-6.40;100.00;96726.09;4997099;28;20045;-73
2022/12/15 07:48:38;;;;;;;27.58;12.60;;;-5.30;99.90;;;-6.25;100.00;96739.72;4988412;28;20058;-73
2022/12/15 07:51:08;;;;;;;27.27;13.32;;;-5.30;99.90;;;-6.25;100.00;96747.28;4989881;28;20041;-73
2022/12/15 07:53:48;;;;;;;28.10;13.48;;;-5.20;99.90;;;-6.31;100.00;96741.34;4992562;28;20141;-72
2022/12/15 07:56:17;;;;;;;28.95;12.00;;;-5.20;99.90;;;-6.44;100.00;96739.53;5021682;28;20120;-73
2022/12/15 07:58:44;;;;;;;35.58;17.13;;;-5.20;99.90;;;-6.17;100.00;96748.22;4990591;28;20057;-73
2022/12/15 08:01:13;;;;;;;35.72;15.75;;;-5.20;99.90;;;-6.27;100.00;96746.41;4990130;28;20061;-73
2022/12/15 08:03:40;;;;;;;39.55;17.30;;;-5.10;99.90;;;-6.11;100.00;96761.75;4987463;28;20057;-72
2022/12/15 08:06:11;;;;;;;36.95;15.13;;;-5.00;99.90;;;-5.95;100.00;96766.97;4994638;28;20136;-72
2022/12/15 08:08:39;;;;;;;33.40;15.48;;;-5.00;99.90;;;-5.95;100.00;96765.28;4990692;28;20074;-73
2022/12/15 08:11:08;;;;;;;31.58;14.80;;;-4.80;99.90;;;-5.91;100.00;96745.88;4994441;28;20046;-73
2022/12/15 08:13:37;;;;;;;33.25;13.40;;;-4.80;99.90;;;-5.97;100.00;96756.81;4989102;28;20056;-73
2022/12/15 08:16:24;;;;;;;36.80;17.90;;;-4.70;99.90;;;-5.80;100.00;96768.72;4991129;28;20070;-73
2022/12/15 08:18:52;;;;;;;37.00;16.73;;;-4.70;99.90;;;-5.89;100.00;96772.00;4991492;28;20586;-73
2022/12/15 08:21:19;;;;;;;41.42;21.10;;;-4.70;99.90;;;-5.91;100.00;96771.16;4996800;28;20050;-72
2022/12/15 08:23:46;;;;;;;35.72;15.55;;;-4.70;99.90;;;-5.87;100.00;96785.50;5018431;28;20064;-73
2022/12/15 08:26:15;;;;;;;41.67;18.77;;;-4.60;99.90;;;-5.68;100.00;96796.63;4992258;28;20056;-73
2022/12/15 08:28:44;;;;;;;33.03;16.20;;;-4.50;99.90;;;-5.51;100.00;96807.72;4990909;28;20061;-73
2022/12/15 08:31:18;;;;;;;30.75;14.77;;;-4.40;99.90;;;-5.29;100.00;96828.13;5007345;28;20046;-73
2022/12/15 08:33:46;;;;;;;38.00;17.25;;;-4.10;99.90;;;-5.31;100.00;96823.06;5000264;28;20061;-72
2022/12/15 08:36:17;;;;;;;33.00;17.08;;;-3.90;99.90;;;-5.32;100.00;96825.56;4990172;28;20463;-72
2022/12/15 08:38:45;;;;;;;44.60;21.05;;;-3.80;99.90;;;-5.19;100.00;96824.00;4996736;28;20141;-73
2022/12/15 08:41:17;;;;;;;41.55;18.92;;;-3.70;99.90;;;-4.89;100.00;96824.19;4991112;28;20046;-72
2022/12/15 08:43:46;;;;;;;43.63;19.85;;;-3.50;99.90;;;-4.78;100.00;96831.84;4988345;28;20576;-72
2022/12/15 08:46:17;;;;;;;56.03;29.52;;;-3.40;99.90;;;-5.06;100.00;96828.31;4985710;28;20263;-73
2022/12/15 08:48:44;;;;;;;37.90;19.92;;;-3.50;99.90;;;-5.00;100.00;96820.72;4988762;28;20054;-74
2022/12/15 08:51:12;;;;;;;56.97;30.38;;;-3.50;99.90;;;-4.91;100.00;96810.66;4991304;28;20050;-73
2022/12/15 08:53:39;;;;;;;65.18;31.45;;;-3.50;99.90;;;-4.77;100.00;96820.03;4987618;28;20042;-73
2022/12/15 08:56:14;;;;;;;43.38;23.52;;;-3.30;99.90;;;-4.62;100.00;96840.38;4988562;28;20050;-73
2022/12/15 08:58:42;;;;;;;52.28;25.63;;;-3.10;99.90;;;-4.55;100.00;96834.50;5002465;28;20561;-73
2022/12/15 09:01:17;;;;;;;52.50;24.80;;;-3.00;99.90;;;-4.62;100.00;96842.91;4989749;28;20145;-73
2022/12/15 09:03:53;;;;;;;41.92;22.88;;;-2.90;99.90;;;-4.52;100.00;96844.63;5011723;28;20938;-73
2022/12/15 09:06:28;;;;;;;45.42;24.17;;;-2.70;99.90;;;-4.30;100.00;96832.06;4985842;28;20049;-73
2022/12/15 09:08:58;;;;;;;41.47;23.60;;;-2.70;99.90;;;-4.44;100.00;96829.47;4986545;28;20053;-73
2022/12/15 09:11:27;;;;;;;41.72;23.65;;;-2.50;99.90;;;-4.41;100.00;96819.34;4988558;28;20042;-73
2022/12/15 09:13:55;;;;;;;38.15;21.95;;;-2.60;99.90;;;-4.19;100.00;96817.75;4988462;28;20096;-72
2022/12/15 09:16:23;;;;;;;41.88;24.38;;;-2.40;99.90;;;-4.27;100.00;96819.41;4992107;28;20057;-73
2022/12/15 09:18:53;;;;;;;40.33;23.65;;;-2.40;99.90;;;-4.06;100.00;96816.94;4976372;28;20165;-73
2022/12/15 09:21:24;;;;;;;38.38;23.10;;;-2.30;99.90;;;-3.87;100.00;96814.44;4987811;28;20928;-73
2022/12/15 09:23:57;;;;;;;38.85;23.15;;;-2.20;99.90;;;-3.66;100.00;96809.38;4990130;28;20061;-73
2022/12/15 09:26:24;;;;;;;41.40;21.87;;;-2.00;99.90;;;-3.48;100.00;96817.88;5020562;28;21163;-73
2022/12/15 09:28:54;;;;;;;37.42;22.55;;;-1.90;99.90;;;-3.74;100.00;96822.91;4990568;28;20054;-73
2022/12/15 09:31:27;;;;;;;47.72;26.55;;;-1.80;99.90;;;-3.76;100.00;96825.47;5002744;28;20523;-73
2022/12/15 09:33:57;;;;;;;42.17;25.40;;;-1.80;99.90;;;-3.49;100.00;96818.69;5030525;28;20076;-73
2022/12/15 09:36:24;;;;;;;51.58;26.92;;;-1.80;99.90;;;-3.54;100.00;96816.16;5008651;28;20050;-73
2022/12/15 09:38:51;;;;;;;43.80;24.95;;;-1.70;99.90;;;-3.62;100.00;96813.63;5004361;28;20058;-73
2022/12/15 09:41:26;;;;;;;43.10;25.13;;;-1.70;99.90;;;-3.58;100.00;96812.78;5004675;28;20306;-73
2022/12/15 09:44:03;;;;;;;47.35;25.25;;;-1.60;99.90;;;-3.86;100.00;96813.59;5006227;28;20437;-70
2022/12/15 09:46:39;;;;;;;44.50;24.30;;;-1.60;99.90;;;-3.55;100.00;96811.94;5004045;28;20050;-73
2022/12/15 09:49:27;;;;;;;44.78;24.73;;;-1.70;99.90;;;-3.32;100.00;96799.25;4999373;28;20389;-73
2022/12/15 09:52:10;;;;;;;42.17;24.30;;;-1.60;99.90;;;-3.57;100.00;96804.31;5005987;28;20050;-72
2022/12/15 09:54:40;;;;;;;;;;;-1.50;99.90;;;-3.63;100.00;96806.00;5003434;28;20104;-72
2022/12/15 09:57:24;;;;;;;46.85;25.58;;;-1.60;99.90;;;-3.89;100.00;96799.22;5002527;28;19975;-73
2022/12/15 10:00:14;;;;;;;53.65;25.90;;;-1.80;99.90;;;-4.13;100.00;96792.41;5018288;28;20077;-73
2022/12/15 10:03:06;;;;;;;51.00;26.80;;;-2.20;99.90;;;-4.39;100.00;96801.63;5036559;28;20163;-72
2022/12/15 10:05:36;;;;;;;51.08;28.27;;;-2.50;99.90;;;-4.54;100.00;96804.94;5003532;28;20050;-73
2022/12/15 10:08:30;;;;;;;53.25;29.35;;;-2.70;99.90;;;-4.43;100.00;96809.19;5004359;28;20176;-72
2022/12/15 10:11:10;;;;;;;58.85;33.03;;;-2.90;99.90;;;-4.35;100.00;96803.34;5001995;28;20057;-72
2022/12/15 10:14:05;;;;;;;54.53;28.55;;;-3.00;99.90;;;-4.12;100.00;96811.84;5005821;28;20050;-72
2022/12/15 10:17:22;;;;;;;45.95;25.88;;;-2.90;99.90;;;-4.31;100.00;96812.63;5005994;28;20046;-73
2022/12/15 10:20:05;;;;;;;45.28;24.58;;;-2.80;99.90;;;-4.00;100.00;96804.25;5002775;28;20054;-72
2022/12/15 10:22:36;;;;;;;47.88;25.63;;;-2.60;99.90;;;-3.90;100.00;96799.22;5020134;28;20416;-72
2022/12/15 10:25:30;;;;;;;52.53;25.73;;;-2.40;99.90;;;-3.60;100.00;96788.28;5006846;28;20054;-73
2022/12/15 10:28:36;;;;;;;56.80;29.40;;;-2.20;99.90;;;-4.09;100.00;96783.13;5000764;28;20129;-72
2022/12/15 10:31:31;;;;;;;46.30;25.13;;;-2.30;99.90;;;-3.98;100.00;96776.41;5000946;28;20046;-72
2022/12/15 10:34:10;;;;;;;47.17;26.05;;;-2.50;99.90;;;-3.89;100.00;96773.88;4979097;28;20679;-72
2022/12/15 10:36:43;;;;;;;45.15;25.23;;;-2.40;99.90;;;-3.91;100.00;96778.09;5004289;28;20061;-72
2022/12/15 10:39:10;;;;;;;36.85;20.45;;;-2.30;99.90;;;-3.94;100.00;96774.72;5006570;28;20084;-72
2022/12/15 10:41:42;;;;;;;39.42;22.27;;;-2.30;99.90;;;-3.84;100.00;96771.34;5003983;28;20104;-72
2022/12/15 10:44:36;;;;;;;47.15;26.25;;;-2.30;99.90;;;-4.01;100.00;96776.41;5004113;28;20064;-73
2022/12/15 10:47:31;;;;;;;37.75;22.95;;;-2.40;99.90;;;-3.78;100.00;96784.88;5002964;28;20081;-72
2022/12/15 10:50:23;;;;;;;37.95;22.33;;;-2.40;99.90;;;-3.76;100.00;96794.16;5037420;28;20583;-72
2022/12/15 10:52:51;;;;;;;38.15;21.95;;;-2.20;99.90;;;-3.78;100.00;96778.97;5035540;28;20061;-72
2022/12/15 10:55:40;;;;;;;48.40;28.98;;;-2.20;99.90;;;-3.70;100.00;96772.19;5005457;28;20049;-73
2022/12/15 10:58:20;;;;;;;38.90;21.92;;;-2.30;99.90;;;-4.13;100.00;96771.28;4998684;28;20049;-72
2022/12/15 11:01:04;;;;;;;40.95;22.48;;;-2.40;99.90;;;-4.10;100.00;96763.72;5004247;28;20072;-72
2022/12/15 11:03:36;;;;;;;47.08;26.23;;;-2.40;99.90;;;-3.97;100.00;96767.94;5003417;28;20068;-74
2022/12/15 11:06:17;;;;;;;;;;;-2.50;99.90;;;-4.02;100.00;96767.94;5005206;28;20081;-72
2022/12/15 11:08:46;;;;;;;51.40;25.20;;;-2.60;99.90;;;-4.03;100.00;96761.19;5033768;28;19925;-72
2022/12/15 11:14:48;;;;;;;47.55;24.77;;;-2.30;99.90;;;-3.57;100.00;96750.22;4991041;28;20124;-72
2022/12/15 11:17:21;;;;;;;45.28;22.05;;;-2.10;99.90;;;-3.63;100.00;96752.75;5004129;28;20052;-73
2022/12/15 11:19:59;;;;;;;43.60;24.77;;;-2.00;99.90;;;-3.64;100.00;96738.38;5004771;28;20068;-73
2022/12/15 11:22:56;;;;;;;42.28;24.85;;;-2.00;99.90;;;-3.81;100.00;96729.09;5002061;28;20050;-72
2022/12/15 11:25:50;;;;;;;39.67;23.67;;;-2.20;99.90;;;-3.73;100.00;96724.00;5003763;28;20058;-72
2022/12/15 11:28:31;;;;;;;42.03;23.25;;;-2.20;99.90;;;-3.66;100.00;96714.72;5001766;28;20736;-72
2022/12/15 11:31:21;;;;;;;43.08;23.45;;;-2.20;99.90;;;-3.74;100.00;96721.47;5004088;28;20057;-72
2022/12/15 11:33:52;;;;;;;41.63;23.80;;;-2.30;99.90;;;-3.71;100.00;96727.41;4994230;28;20062;-72
2022/12/15 11:36:45;;;;;;;44.78;25.00;;;-2.10;99.90;;;-3.51;100.00;96731.59;5003665;28;20054;-72
2022/12/15 11:40:01;;;;;;;42.55;25.23;;;-2.10;99.90;;;-3.25;100.00;96718.88;5017894;28;20050;-72
2022/12/15 11:42:46;;;;;;;41.22;25.33;;;-1.90;99.90;;;-2.98;100.00;96718.81;5004476;28;20081;-72
2022/12/15 11:45:50;;;;;;;37.15;22.23;;;-1.60;99.90;;;-2.98;100.00;96716.28;5003774;28;20141;-72
2022/12/15 11:48:49;;;;;;;40.80;23.13;;;-1.20;99.90;;;-2.70;100.00;96707.72;5003915;28;20484;-72
2022/12/15 11:51:34;;;;;;;38.33;23.23;;;-1.00;99.90;;;-2.40;100.00;96696.53;5003086;28;20059;-72
2022/12/15 11:54:15;;;;;;;46.95;25.50;;;-0.70;99.90;;;-2.51;100.00;96678.81;5003338;28;20153;-73
2022/12/15 11:56:59;;;;;;;48.00;28.70;;;-0.70;99.90;;;-2.77;100.00;96668.78;5003457;28;20069;-73
2022/12/15 11:59:47;;;;;;;36.58;21.25;;;-0.80;99.90;;;-2.91;100.00;96678.19;4999090;28;20061;-73
2022/12/15 12:02:45;;;;;;;37.65;22.90;;;-1.00;99.90;;;-2.78;100.00;96675.56;5003644;28;20066;-73
2022/12/15 12:05:24;;;;;;;42.72;24.25;;;-1.20;99.90;;;-2.77;100.00;96663.72;5003377;28;20054;-72
2022/12/15 12:08:26;;;;;;;46.83;25.70;;;-1.30;99.90;;;-2.80;100.00;96659.50;4997730;28;20065;-73
2022/12/15 12:11:13;;;;;;;38.55;21.13;;;-1.30;99.90;;;-2.56;100.00;96655.13;5030967;28;20058;-73
2022/12/15 12:13:53;;;;;;;39.50;21.60;;;-1.20;99.90;;;-2.90;100.00;96655.28;4992887;28;20057;-73
2022/12/15 12:16:41;;;;;;;37.78;22.58;;;-1.30;99.90;;;-2.92;100.00;96644.28;5002149;28;20104;-73
2022/12/15 12:19:16;;;;;;;41.75;23.48;;;-1.20;99.90;;;-2.75;100.00;96627.28;5017133;28;20077;-73
2022/12/15 12:22:03;;;;;;;40.00;22.10;;;-1.30;99.90;;;-2.65;100.00;96629.78;5008272;28;20432;-73
2022/12/15 12:24:37;;;;;;;39.70;22.73;;;-1.20;99.90;;;-2.80;100.00;96628.19;5003370;28;20064;-73
2022/12/15 12:27:11;;;;;;;40.53;23.40;;;-1.20;99.90;;;-2.76;100.00;96619.66;5007384;28;20050;-73
2022/12/15 12:29:48;;;;;;;71.22;39.80;;;-1.30;99.90;;;-2.80;100.00;96612.94;5007594;28;20507;-72
2022/12/15 12:32:48;;;;;;;93.68;51.53;;;-1.40;99.90;;;-2.75;100.00;96601.88;5007494;28;20129;-72
2022/12/15 12:35:25;;;;;;;43.22;24.83;;;-1.30;99.90;;;-2.65;100.00;96596.75;5008088;28;20046;-72
2022/12/15 12:38:02;;;;;;;49.00;31.77;;;-1.20;99.90;;;-2.69;100.00;96611.19;5005121;28;20054;-72
2022/12/15 12:40:39;;;;;;;46.08;26.33;;;-1.30;99.90;;;-2.74;100.00;96612.88;5004227;28;20140;-72
2022/12/15 12:43:10;;;;;;;62.92;35.72;;;-1.10;99.90;;;-2.77;100.00;96603.59;5005196;28;20054;-72
2022/12/15 12:46:16;;;;;;;44.95;26.98;;;-1.20;99.90;;;-2.76;100.00;96604.44;5009098;28;20124;-72
2022/12/15 12:49:06;;;;;;;41.47;23.35;;;-1.20;99.90;;;-2.66;100.00;96601.00;4980228;28;20042;-72
2022/12/15 12:51:40;;;;;;;38.75;21.45;;;-1.10;99.90;;;-2.74;100.00;96597.66;5019340;28;20087;-72